sensor_id;sensor_type;location;lat;lon;timestamp;pressure;altitude;pressure_sealevel;temperature;humidity
34374;BME280;20637;55.770;37.592;2023-05-08T00:02:13;101157.28;;;5.87;45.87
34374;BME280;20637;55.770;37.592;2023-05-08T00:04:39;101158.41;;;5.83;46.48
34374;BME280;20637;55.770;37.592;2023-05-08T00:07:04;101165.91;;;5.78;46.20
34374;BME280;20637;55.770;37.592;2023-05-08T00:09:30;101166.09;;;5.75;46.20
34374;BME280;20637;55.770;37.592;2023-05-08T00:11:55;101166.94;;;5.75;45.86
34374;BME280;20637;55.770;37.592;2023-05-08T00:14:20;101165.25;;;5.74;46.31
34374;BME280;20637;55.770;37.592;2023-05-08T00:16:46;101170.59;;;5.74;46.09
34374;BME280;20637;55.770;37.592;2023-05-08T00:19:11;101168.00;;;5.73;46.73
34374;BME280;20637;55.770;37.592;2023-05-08T00:21:37;101177.00;;;5.72;46.85
34374;BME280;20637;55.770;37.592;2023-05-08T00:24:03;101176.13;;;5.71;46.84
34374;BME280;20637;55.770;37.592;2023-05-08T00:26:28;101177.00;;;5.72;46.99
34374;BME280;20637;55.770;37.592;2023-05-08T00:28:54;101166.50;;;5.69;46.86
34374;BME280;20637;55.770;37.592;2023-05-08T00:31:19;101175.47;;;5.68;46.60
34374;BME280;20637;55.770;37.592;2023-05-08T00:33:45;101176.34;;;5.68;46.59
34374;BME280;20637;55.770;37.592;2023-05-08T00:36:10;101173.56;;;5.70;46.54
34374;BME280;20637;55.770;37.592;2023-05-08T00:38:36;101180.84;;;5.68;46.93
34374;BME280;20637;55.770;37.592;2023-05-08T00:41:02;101179.31;;;5.64;46.05
34374;BME280;20637;55.770;37.592;2023-05-08T00:43:27;101173.97;;;5.64;46.59
34374;BME280;20637;55.770;37.592;2023-05-08T00:45:53;101176.84;;;5.61;47.01
34374;BME280;20637;55.770;37.592;2023-05-08T00:48:20;101180.59;;;5.58;46.69
34374;BME280;20637;55.770;37.592;2023-05-08T00:50:46;101178.84;;;5.57;46.60
34374;BME280;20637;55.770;37.592;2023-05-08T00:53:12;101181.44;;;5.59;46.73
34374;BME280;20637;55.770;37.592;2023-05-08T00:55:38;101189.56;;;5.57;46.06
34374;BME280;20637;55.770;37.592;2023-05-08T00:58:04;101186.25;;;5.54;46.54
34374;BME280;20637;55.770;37.592;2023-05-08T01:00:31;101184.50;;;5.53;46.55
34374;BME280;20637;55.770;37.592;2023-05-08T01:02:57;101181.84;;;5.53;46.78
34374;BME280;20637;55.770;37.592;2023-05-08T01:05:23;101185.28;;;5.55;46.74
34374;BME280;20637;55.770;37.592;2023-05-08T01:07:49;101192.38;;;5.56;46.49
34374;BME280;20637;55.770;37.592;2023-05-08T01:10:15;101189.78;;;5.54;46.85
34374;BME280;20637;55.770;37.592;2023-05-08T01:12:46;101187.09;;;5.54;46.33
34374;BME280;20637;55.770;37.592;2023-05-08T01:15:28;101188.91;;;5.54;46.26
34374;BME280;20637;55.770;37.592;2023-05-08T01:20:45;101191.78;;;5.51;45.90
34374;BME280;20637;55.770;37.592;2023-05-08T01:26:05;101188.53;;;5.46;46.42
34374;BME280;20637;55.770;37.592;2023-05-08T01:33:52;101198.50;;;5.44;46.13
34374;BME280;20637;55.770;37.592;2023-05-08T01:41:15;101200.97;;;5.47;46.59
34374;BME280;20637;55.770;37.592;2023-05-08T01:43:49;101198.09;;;5.50;46.14
34374;BME280;20637;55.770;37.592;2023-05-08T01:46:18;101207.75;;;5.52;46.51
34374;BME280;20637;55.770;37.592;2023-05-08T01:48:46;101200.69;;;5.51;46.33
34374;BME280;20637;55.770;37.592;2023-05-08T01:51:18;101209.59;;;5.52;46.79
34374;BME280;20637;55.770;37.592;2023-05-08T01:53:50;101213.97;;;5.53;46.58
34374;BME280;20637;55.770;37.592;2023-05-08T01:56:17;101210.34;;;5.54;47.23
34374;BME280;20637;55.770;37.592;2023-05-08T01:58:46;101218.47;;;5.52;47.54
34374;BME280;20637;55.770;37.592;2023-05-08T02:01:13;101215.91;;;5.51;47.52
34374;BME280;20637;55.770;37.592;2023-05-08T02:03:40;101219.81;;;5.45;47.19
34374;BME280;20637;55.770;37.592;2023-05-08T02:06:07;101226.16;;;5.44;47.45
34374;BME280;20637;55.770;37.592;2023-05-08T02:08:33;101227.84;;;5.45;47.69
34374;BME280;20637;55.770;37.592;2023-05-08T02:10:59;101232.34;;;5.45;47.89
34374;BME280;20637;55.770;37.592;2023-05-08T02:13:26;101227.00;;;5.45;47.91
34374;BME280;20637;55.770;37.592;2023-05-08T02:15:52;101231.31;;;5.47;47.40
34374;BME280;20637;55.770;37.592;2023-05-08T02:18:20;101229.28;;;5.51;47.65
34374;BME280;20637;55.770;37.592;2023-05-08T02:20:49;101233.03;;;5.48;47.96
34374;BME280;20637;55.770;37.592;2023-05-08T02:23:35;101231.31;;;5.47;47.68
34374;BME280;20637;55.770;37.592;2023-05-08T02:26:02;101236.66;;;5.47;47.83
34374;BME280;20637;55.770;37.592;2023-05-08T02:28:28;101234.19;;;5.44;48.35
34374;BME280;20637;55.770;37.592;2023-05-08T02:30:56;101229.66;;;5.45;48.33
34374;BME280;20637;55.770;37.592;2023-05-08T02:33:22;101237.63;;;5.46;48.11
34374;BME280;20637;55.770;37.592;2023-05-08T02:35:48;101240.38;;;5.45;48.18
34374;BME280;20637;55.770;37.592;2023-05-08T02:38:15;101238.69;;;5.44;48.83
34374;BME280;20637;55.770;37.592;2023-05-08T02:40:46;101244.78;;;5.46;48.94
34374;BME280;20637;55.770;37.592;2023-05-08T02:43:12;101248.31;;;5.46;48.41
34374;BME280;20637;55.770;37.592;2023-05-08T02:45:48;101255.31;;;5.49;48.54
34374;BME280;20637;55.770;37.592;2023-05-08T02:48:25;101255.41;;;5.47;48.54
34374;BME280;20637;55.770;37.592;2023-05-08T02:53:33;101258.97;;;5.48;48.46
34374;BME280;20637;55.770;37.592;2023-05-08T02:56:11;101262.50;;;5.48;48.60
34374;BME280;20637;55.770;37.592;2023-05-08T03:01:49;101268.22;;;5.56;48.08
34374;BME280;20637;55.770;37.592;2023-05-08T03:04:18;101268.03;;;5.59;48.07
34374;BME280;20637;55.770;37.592;2023-05-08T03:06:47;101278.44;;;5.64;47.84
34374;BME280;20637;55.770;37.592;2023-05-08T03:09:15;101269.38;;;5.66;48.02
34374;BME280;20637;55.770;37.592;2023-05-08T03:11:43;101278.56;;;5.62;48.82
34374;BME280;20637;55.770;37.592;2023-05-08T03:14:10;101273.28;;;5.61;48.21
34374;BME280;20637;55.770;37.592;2023-05-08T03:16:38;101278.63;;;5.61;48.81
34374;BME280;20637;55.770;37.592;2023-05-08T03:19:06;101275.22;;;5.59;48.40
34374;BME280;20637;55.770;37.592;2023-05-08T03:21:34;101280.38;;;5.62;48.86
34374;BME280;20637;55.770;37.592;2023-05-08T03:24:01;101271.28;;;5.64;49.22
34374;BME280;20637;55.770;37.592;2023-05-08T03:26:28;101283.72;;;5.65;48.57
34374;BME280;20637;55.770;37.592;2023-05-08T03:28:53;101280.75;;;5.70;48.75
34374;BME280;20637;55.770;37.592;2023-05-08T03:31:24;101277.00;;;5.72;48.73
34374;BME280;20637;55.770;37.592;2023-05-08T03:33:52;101275.75;;;5.78;49.23
34374;BME280;20637;55.770;37.592;2023-05-08T03:36:18;101281.88;;;5.80;49.52
34374;BME280;20637;55.770;37.592;2023-05-08T03:38:44;101282.53;;;5.84;48.66
34374;BME280;20637;55.770;37.592;2023-05-08T03:41:10;101284.75;;;5.91;48.37
34374;BME280;20637;55.770;37.592;2023-05-08T03:43:35;101285.03;;;6.01;48.69
34374;BME280;20637;55.770;37.592;2023-05-08T03:46:02;101290.78;;;6.09;48.48
34374;BME280;20637;55.770;37.592;2023-05-08T03:48:29;101300.13;;;6.16;48.09
34374;BME280;20637;55.770;37.592;2023-05-08T03:50:56;101290.94;;;6.20;48.39
34374;BME280;20637;55.770;37.592;2023-05-08T03:53:22;101289.56;;;6.27;48.58
34374;BME280;20637;55.770;37.592;2023-05-08T03:55:48;101291.94;;;6.32;49.03
34374;BME280;20637;55.770;37.592;2023-05-08T03:58:23;101295.28;;;6.35;48.85
34374;BME280;20637;55.770;37.592;2023-05-08T04:01:07;101295.72;;;6.42;48.69
34374;BME280;20637;55.770;37.592;2023-05-08T04:03:43;101300.50;;;6.51;48.30
34374;BME280;20637;55.770;37.592;2023-05-08T04:06:12;101303.53;;;6.59;48.09
34374;BME280;20637;55.770;37.592;2023-05-08T04:08:40;101292.06;;;6.69;47.80
34374;BME280;20637;55.770;37.592;2023-05-08T04:11:17;101302.28;;;6.77;47.49
34374;BME280;20637;55.770;37.592;2023-05-08T04:13:48;101297.56;;;6.81;47.59
34374;BME280;20637;55.770;37.592;2023-05-08T04:16:16;101299.94;;;6.85;47.24
34374;BME280;20637;55.770;37.592;2023-05-08T04:18:45;101298.47;;;6.94;47.18
34374;BME280;20637;55.770;37.592;2023-05-08T04:21:14;101296.84;;;7.04;47.12
34374;BME280;20637;55.770;37.592;2023-05-08T04:23:42;101294.81;;;7.07;46.99
34374;BME280;20637;55.770;37.592;2023-05-08T04:26:08;101292.91;;;7.09;46.83
34374;BME280;20637;55.770;37.592;2023-05-08T04:28:34;101291.59;;;7.15;46.75
34374;BME280;20637;55.770;37.592;2023-05-08T04:31:00;101302.16;;;7.18;46.64
34374;BME280;20637;55.770;37.592;2023-05-08T04:33:27;101304.31;;;7.26;46.83
34374;BME280;20637;55.770;37.592;2023-05-08T04:35:53;101297.75;;;7.30;46.54
34374;BME280;20637;55.770;37.592;2023-05-08T04:38:20;101299.03;;;7.37;46.04
34374;BME280;20637;55.770;37.592;2023-05-08T04:40:45;101302.56;;;7.50;46.20
34374;BME280;20637;55.770;37.592;2023-05-08T04:43:11;101302.03;;;7.57;45.83
34374;BME280;20637;55.770;37.592;2023-05-08T04:45:37;101293.56;;;7.63;45.96
34374;BME280;20637;55.770;37.592;2023-05-08T04:48:02;101299.09;;;7.73;45.71
34374;BME280;20637;55.770;37.592;2023-05-08T04:50:29;101297.06;;;7.77;45.32
34374;BME280;20637;55.770;37.592;2023-05-08T04:52:54;101300.75;;;7.76;45.85
34374;BME280;20637;55.770;37.592;2023-05-08T04:55:20;101299.97;;;7.74;45.22
34374;BME280;20637;55.770;37.592;2023-05-08T04:57:46;101303.53;;;7.74;45.60
34374;BME280;20637;55.770;37.592;2023-05-08T05:00:12;101296.72;;;7.81;45.58
34374;BME280;20637;55.770;37.592;2023-05-08T05:02:40;101295.31;;;7.88;45.35
34374;BME280;20637;55.770;37.592;2023-05-08T05:05:05;101304.16;;;7.90;45.54
34374;BME280;20637;55.770;37.592;2023-05-08T05:07:32;101301.13;;;7.95;45.40
34374;BME280;20637;55.770;37.592;2023-05-08T05:09:58;101302.50;;;8.00;44.93
34374;BME280;20637;55.770;37.592;2023-05-08T05:12:24;101304.75;;;8.06;45.37
34374;BME280;20637;55.770;37.592;2023-05-08T05:14:49;101315.69;;;8.16;45.41
34374;BME280;20637;55.770;37.592;2023-05-08T05:17:15;101311.72;;;8.22;44.81
34374;BME280;20637;55.770;37.592;2023-05-08T05:19:40;101317.50;;;8.28;45.16
34374;BME280;20637;55.770;37.592;2023-05-08T05:22:06;101308.34;;;8.31;44.52
34374;BME280;20637;55.770;37.592;2023-05-08T05:24:32;101316.22;;;8.34;44.92
34374;BME280;20637;55.770;37.592;2023-05-08T05:27:00;101326.53;;;8.40;44.65
34374;BME280;20637;55.770;37.592;2023-05-08T05:29:26;101317.00;;;8.47;45.26
34374;BME280;20637;55.770;37.592;2023-05-08T05:31:52;101319.03;;;8.56;44.32
34374;BME280;20637;55.770;37.592;2023-05-08T05:34:18;101328.38;;;8.63;44.04
34374;BME280;20637;55.770;37.592;2023-05-08T05:36:44;101322.97;;;8.63;43.73
34374;BME280;20637;55.770;37.592;2023-05-08T05:39:09;101319.56;;;8.61;43.64
34374;BME280;20637;55.770;37.592;2023-05-08T05:41:35;101322.69;;;8.55;43.73
34374;BME280;20637;55.770;37.592;2023-05-08T05:44:01;101324.28;;;8.57;43.94
34374;BME280;20637;55.770;37.592;2023-05-08T05:46:27;101321.25;;;8.62;43.81
34374;BME280;20637;55.770;37.592;2023-05-08T05:48:58;101323.84;;;8.64;43.61
34374;BME280;20637;55.770;37.592;2023-05-08T05:51:25;101320.75;;;8.57;43.29
34374;BME280;20637;55.770;37.592;2023-05-08T05:53:52;101320.00;;;8.55;43.00
34374;BME280;20637;55.770;37.592;2023-05-08T05:56:17;101322.06;;;8.51;43.36
34374;BME280;20637;55.770;37.592;2023-05-08T05:58:43;101314.09;;;8.50;43.33
34374;BME280;20637;55.770;37.592;2023-05-08T06:01:10;101314.63;;;8.55;43.24
34374;BME280;20637;55.770;37.592;2023-05-08T06:03:35;101312.09;;;8.65;43.08
34374;BME280;20637;55.770;37.592;2023-05-08T06:06:02;101315.47;;;8.79;43.19
34374;BME280;20637;55.770;37.592;2023-05-08T06:08:28;101321.63;;;8.92;43.23
34374;BME280;20637;55.770;37.592;2023-05-08T06:10:54;101317.50;;;8.99;43.24
34374;BME280;20637;55.770;37.592;2023-05-08T06:13:21;101325.22;;;9.04;42.22
34374;BME280;20637;55.770;37.592;2023-05-08T06:15:46;101329.28;;;9.09;42.71
34374;BME280;20637;55.770;37.592;2023-05-08T06:18:12;101335.78;;;9.07;42.15
34374;BME280;20637;55.770;37.592;2023-05-08T06:20:37;101319.47;;;9.08;42.36
34374;BME280;20637;55.770;37.592;2023-05-08T06:23:03;101326.13;;;9.16;42.65
34374;BME280;20637;55.770;37.592;2023-05-08T06:25:29;101319.66;;;9.18;41.76
34374;BME280;20637;55.770;37.592;2023-05-08T06:27:55;101316.72;;;9.21;42.23
34374;BME280;20637;55.770;37.592;2023-05-08T06:30:21;101325.41;;;9.25;41.77
34374;BME280;20637;55.770;37.592;2023-05-08T06:32:46;101320.63;;;9.28;41.81
34374;BME280;20637;55.770;37.592;2023-05-08T06:35:12;101324.91;;;9.31;41.52
34374;BME280;20637;55.770;37.592;2023-05-08T06:37:39;101328.22;;;9.23;41.03
34374;BME280;20637;55.770;37.592;2023-05-08T06:40:05;101323.69;;;9.24;41.28
34374;BME280;20637;55.770;37.592;2023-05-08T06:42:30;101322.00;;;9.34;41.67
34374;BME280;20637;55.770;37.592;2023-05-08T06:44:56;101321.41;;;9.41;41.08
34374;BME280;20637;55.770;37.592;2023-05-08T06:47:21;101317.97;;;9.39;40.15
34374;BME280;20637;55.770;37.592;2023-05-08T06:49:47;101324.72;;;9.34;40.17
34374;BME280;20637;55.770;37.592;2023-05-08T06:52:12;101313.69;;;9.37;40.37
34374;BME280;20637;55.770;37.592;2023-05-08T06:54:38;101309.41;;;9.45;40.71
34374;BME280;20637;55.770;37.592;2023-05-08T06:57:05;101323.00;;;9.55;39.66
34374;BME280;20637;55.770;37.592;2023-05-08T06:59:30;101314.47;;;9.61;39.53
34374;BME280;20637;55.770;37.592;2023-05-08T07:01:55;101307.34;;;9.71;40.21
34374;BME280;20637;55.770;37.592;2023-05-08T07:04:21;101304.03;;;9.90;39.65
34374;BME280;20637;55.770;37.592;2023-05-08T07:06:47;101303.75;;;10.04;39.01
34374;BME280;20637;55.770;37.592;2023-05-08T07:09:12;101300.69;;;10.09;39.38
34374;BME280;20637;55.770;37.592;2023-05-08T07:11:38;101296.53;;;10.16;39.25
34374;BME280;20637;55.770;37.592;2023-05-08T07:14:03;101296.41;;;10.28;39.08
34374;BME280;20637;55.770;37.592;2023-05-08T07:16:28;101295.69;;;10.26;38.20
34374;BME280;20637;55.770;37.592;2023-05-08T07:18:54;101294.06;;;10.24;37.75
34374;BME280;20637;55.770;37.592;2023-05-08T07:21:19;101287.22;;;10.31;38.86
34374;BME280;20637;55.770;37.592;2023-05-08T07:23:45;101291.19;;;10.47;38.36
34374;BME280;20637;55.770;37.592;2023-05-08T07:26:12;101292.63;;;10.63;38.35
34374;BME280;20637;55.770;37.592;2023-05-08T07:28:37;101288.88;;;10.75;38.32
34374;BME280;20637;55.770;37.592;2023-05-08T07:31:03;101290.44;;;10.88;37.61
34374;BME280;20637;55.770;37.592;2023-05-08T07:33:29;101287.16;;;10.74;37.04
34374;BME280;20637;55.770;37.592;2023-05-08T07:35:54;101293.00;;;10.58;37.41
34374;BME280;20637;55.770;37.592;2023-05-08T07:38:20;101285.31;;;10.54;37.30
34374;BME280;20637;55.770;37.592;2023-05-08T07:40:45;101281.47;;;10.56;37.77
34374;BME280;20637;55.770;37.592;2023-05-08T07:43:13;101281.16;;;10.70;37.58
34374;BME280;20637;55.770;37.592;2023-05-08T07:45:39;101276.72;;;10.80;37.61
34374;BME280;20637;55.770;37.592;2023-05-08T07:48:04;101280.34;;;10.90;36.74
34374;BME280;20637;55.770;37.592;2023-05-08T07:50:31;101276.88;;;10.99;37.38
34374;BME280;20637;55.770;37.592;2023-05-08T07:52:56;101275.34;;;11.07;36.96
34374;BME280;20637;55.770;37.592;2023-05-08T07:55:22;101276.66;;;11.12;36.58
34374;BME280;20637;55.770;37.592;2023-05-08T07:57:47;101279.22;;;11.14;36.82
34374;BME280;20637;55.770;37.592;2023-05-08T08:00:13;101281.34;;;11.10;36.89
34374;BME280;20637;55.770;37.592;2023-05-08T08:02:39;101283.25;;;10.98;36.12
34374;BME280;20637;55.770;37.592;2023-05-08T08:05:05;101284.34;;;10.75;36.07
34374;BME280;20637;55.770;37.592;2023-05-08T08:07:31;101279.31;;;10.50;36.41
34374;BME280;20637;55.770;37.592;2023-05-08T08:09:59;101282.00;;;10.39;36.59
34374;BME280;20637;55.770;37.592;2023-05-08T08:12:25;101284.47;;;10.42;37.00
34374;BME280;20637;55.770;37.592;2023-05-08T08:14:51;101283.25;;;10.46;36.62
34374;BME280;20637;55.770;37.592;2023-05-08T08:17:16;101283.47;;;10.43;36.64
34374;BME280;20637;55.770;37.592;2023-05-08T08:19:42;101272.47;;;10.35;37.31
34374;BME280;20637;55.770;37.592;2023-05-08T08:22:07;101272.47;;;10.35;37.21
34374;BME280;20637;55.770;37.592;2023-05-08T08:24:33;101276.88;;;10.36;37.11
34374;BME280;20637;55.770;37.592;2023-05-08T08:26:59;101270.84;;;10.43;37.14
34374;BME280;20637;55.770;37.592;2023-05-08T08:29:24;101271.28;;;10.60;36.81
34374;BME280;20637;55.770;37.592;2023-05-08T08:31:50;101267.81;;;10.89;36.65
34374;BME280;20637;55.770;37.592;2023-05-08T08:34:15;101274.47;;;11.06;36.09
34374;BME280;20637;55.770;37.592;2023-05-08T08:36:41;101271.31;;;11.01;36.29
34374;BME280;20637;55.770;37.592;2023-05-08T08:39:06;101268.03;;;10.97;36.33
34374;BME280;20637;55.770;37.592;2023-05-08T08:41:32;101266.38;;;11.06;36.63
34374;BME280;20637;55.770;37.592;2023-05-08T08:43:57;101258.78;;;11.21;36.75
34374;BME280;20637;55.770;37.592;2023-05-08T08:46:24;101257.72;;;11.33;36.38
34374;BME280;20637;55.770;37.592;2023-05-08T08:48:51;101260.91;;;11.38;36.00
34374;BME280;20637;55.770;37.592;2023-05-08T08:51:31;101264.69;;;11.35;36.14
34374;BME280;20637;55.770;37.592;2023-05-08T08:56:25;101257.88;;;11.31;36.33
34374;BME280;20637;55.770;37.592;2023-05-08T08:59:00;101262.63;;;11.39;36.23
34374;BME280;20637;55.770;37.592;2023-05-08T09:01:27;101261.78;;;11.48;35.83
34374;BME280;20637;55.770;37.592;2023-05-08T09:03:57;101257.78;;;11.42;35.90
34374;BME280;20637;55.770;37.592;2023-05-08T09:06:23;101260.06;;;11.47;35.93
34374;BME280;20637;55.770;37.592;2023-05-08T09:08:49;101264.38;;;11.50;35.91
34374;BME280;20637;55.770;37.592;2023-05-08T09:11:14;101256.84;;;11.53;35.57
34374;BME280;20637;55.770;37.592;2023-05-08T09:13:40;101260.06;;;11.47;35.57
34374;BME280;20637;55.770;37.592;2023-05-08T09:16:05;101261.22;;;11.44;35.36
34374;BME280;20637;55.770;37.592;2023-05-08T09:18:31;101267.00;;;11.40;35.21
34374;BME280;20637;55.770;37.592;2023-05-08T09:20:56;101260.81;;;11.28;35.24
34374;BME280;20637;55.770;37.592;2023-05-08T09:23:22;101263.91;;;11.24;34.86
34374;BME280;20637;55.770;37.592;2023-05-08T09:25:48;101257.34;;;11.17;35.03
34374;BME280;20637;55.770;37.592;2023-05-08T09:28:21;101266.47;;;11.16;35.12
34374;BME280;20637;55.770;37.592;2023-05-08T09:30:57;101270.25;;;11.13;34.61
34374;BME280;20637;55.770;37.592;2023-05-08T09:33:23;101271.06;;;11.04;33.56
34374;BME280;20637;55.770;37.592;2023-05-08T09:35:49;101267.91;;;10.99;33.85
34374;BME280;20637;55.770;37.592;2023-05-08T09:38:49;101263.88;;;10.93;33.49
34374;BME280;20637;55.770;37.592;2023-05-08T09:41:11;101262.69;;;10.86;34.02
34374;BME280;20637;55.770;37.592;2023-05-08T09:43:38;101256.88;;;10.91;34.17
34374;BME280;20637;55.770;37.592;2023-05-08T09:46:20;101268.03;;;10.97;34.36
34374;BME280;20637;55.770;37.592;2023-05-08T09:48:46;101258.38;;;11.05;34.01
34374;BME280;20637;55.770;37.592;2023-05-08T09:51:12;101260.50;;;11.01;34.11
34374;BME280;20637;55.770;37.592;2023-05-08T09:53:38;101257.22;;;10.97;34.33
34374;BME280;20637;55.770;37.592;2023-05-08T09:56:03;101258.66;;;11.02;34.48
34374;BME280;20637;55.770;37.592;2023-05-08T09:58:38;101248.31;;;11.07;34.74
34374;BME280;20637;55.770;37.592;2023-05-08T10:01:05;101246.53;;;11.17;34.67
34374;BME280;20637;55.770;37.592;2023-05-08T10:03:44;101252.13;;;11.25;34.49
34374;BME280;20637;55.770;37.592;2023-05-08T10:06:11;101249.88;;;11.30;34.69
34374;BME280;20637;55.770;37.592;2023-05-08T10:08:37;101247.97;;;11.41;34.63
34374;BME280;20637;55.770;37.592;2023-05-08T10:11:15;101251.94;;;11.47;34.53
34374;BME280;20637;55.770;37.592;2023-05-08T10:13:41;101259.38;;;11.55;34.17
34374;BME280;20637;55.770;37.592;2023-05-08T10:16:09;101251.56;;;11.52;34.43
34374;BME280;20637;55.770;37.592;2023-05-08T10:18:35;101256.44;;;11.58;34.40
34374;BME280;20637;55.770;37.592;2023-05-08T10:21:02;101244.53;;;11.70;34.41
34374;BME280;20637;55.770;37.592;2023-05-08T10:23:30;101254.88;;;11.85;34.27
34374;BME280;20637;55.770;37.592;2023-05-08T10:25:59;101241.09;;;11.98;34.07
34374;BME280;20637;55.770;37.592;2023-05-08T10:28:31;101246.09;;;12.03;33.45
34374;BME280;20637;55.770;37.592;2023-05-08T10:30:58;101238.72;;;12.05;33.56
34374;BME280;20637;55.770;37.592;2023-05-08T10:33:24;101240.84;;;12.11;33.50
34374;BME280;20637;55.770;37.592;2023-05-08T10:35:55;101246.13;;;12.22;33.23
34374;BME280;20637;55.770;37.592;2023-05-08T10:38:21;101243.88;;;12.27;33.03
34374;BME280;20637;55.770;37.592;2023-05-08T10:40:46;101235.59;;;12.28;33.41
34374;BME280;20637;55.770;37.592;2023-05-08T10:43:12;101230.91;;;12.30;33.57
34374;BME280;20637;55.770;37.592;2023-05-08T10:45:38;101233.31;;;12.24;32.63
34374;BME280;20637;55.770;37.592;2023-05-08T10:48:10;101224.75;;;12.19;32.49
34374;BME280;20637;55.770;37.592;2023-05-08T10:53:17;101229.44;;;12.17;32.88
34374;BME280;20637;55.770;37.592;2023-05-08T10:55:44;101228.75;;;12.24;32.51
34374;BME280;20637;55.770;37.592;2023-05-08T11:03:15;101207.69;;;12.57;32.22
34374;BME280;20637;55.770;37.592;2023-05-08T11:05:47;101219.81;;;12.62;32.64
34374;BME280;20637;55.770;37.592;2023-05-08T11:08:14;101208.69;;;12.65;32.68
34374;BME280;20637;55.770;37.592;2023-05-08T11:10:41;101210.53;;;12.65;32.48
34374;BME280;20637;55.770;37.592;2023-05-08T11:13:07;101207.09;;;12.63;32.80
34374;BME280;20637;55.770;37.592;2023-05-08T11:15:40;101202.13;;;12.58;32.43
34374;BME280;20637;55.770;37.592;2023-05-08T11:18:07;101208.81;;;12.54;32.31
34374;BME280;20637;55.770;37.592;2023-05-08T11:20:40;101210.81;;;12.52;32.28
34374;BME280;20637;55.770;37.592;2023-05-08T11:23:21;101200.84;;;12.53;33.18
34374;BME280;20637;55.770;37.592;2023-05-08T11:25:47;101206.84;;;12.66;32.34
34374;BME280;20637;55.770;37.592;2023-05-08T11:28:12;101213.09;;;12.66;32.22
34374;BME280;20637;55.770;37.592;2023-05-08T11:30:42;101201.97;;;12.60;32.52
34374;BME280;20637;55.770;37.592;2023-05-08T11:40:45;101197.69;;;12.76;32.56
34374;BME280;20637;55.770;37.592;2023-05-08T11:43:24;101202.84;;;12.70;32.14
34374;BME280;20637;55.770;37.592;2023-05-08T11:45:52;101199.56;;;12.57;31.95
34374;BME280;20637;55.770;37.592;2023-05-08T11:48:18;101200.84;;;12.43;32.64
34374;BME280;20637;55.770;37.592;2023-05-08T11:50:44;101196.72;;;12.39;33.39
34374;BME280;20637;55.770;37.592;2023-05-08T11:53:11;101203.81;;;12.40;32.39
34374;BME280;20637;55.770;37.592;2023-05-08T11:55:36;101201.69;;;12.34;32.95
34374;BME280;20637;55.770;37.592;2023-05-08T11:58:10;101203.41;;;12.35;33.25
34374;BME280;20637;55.770;37.592;2023-05-08T12:00:39;101207.53;;;12.29;32.27
34374;BME280;20637;55.770;37.592;2023-05-08T12:03:05;101199.53;;;12.18;32.37
34374;BME280;20637;55.770;37.592;2023-05-08T12:05:31;101194.69;;;12.22;32.62
34374;BME280;20637;55.770;37.592;2023-05-08T12:07:58;101200.25;;;12.30;32.33
34374;BME280;20637;55.770;37.592;2023-05-08T12:10:23;101206.69;;;12.38;32.60
34374;BME280;20637;55.770;37.592;2023-05-08T12:12:49;101197.56;;;12.39;32.02
34374;BME280;20637;55.770;37.592;2023-05-08T12:15:14;101200.38;;;12.28;32.18
34374;BME280;20637;55.770;37.592;2023-05-08T12:17:40;101197.41;;;12.22;32.36
34374;BME280;20637;55.770;37.592;2023-05-08T12:20:12;101196.69;;;12.20;32.72
34374;BME280;20637;55.770;37.592;2023-05-08T12:22:39;101203.97;;;12.29;32.63
34374;BME280;20637;55.770;37.592;2023-05-08T12:25:08;101200.56;;;12.27;31.67
34374;BME280;20637;55.770;37.592;2023-05-08T12:27:37;101200.09;;;12.22;32.06
34374;BME280;20637;55.770;37.592;2023-05-08T12:30:06;101199.13;;;12.23;32.31
34374;BME280;20637;55.770;37.592;2023-05-08T12:32:33;101193.13;;;12.29;32.51
34374;BME280;20637;55.770;37.592;2023-05-08T12:34:59;101196.84;;;12.37;32.39
34374;BME280;20637;55.770;37.592;2023-05-08T12:37:27;101194.00;;;12.49;32.63
34374;BME280;20637;55.770;37.592;2023-05-08T12:39:53;101195.41;;;12.53;31.82
34374;BME280;20637;55.770;37.592;2023-05-08T12:42:18;101184.59;;;12.53;31.92
34374;BME280;20637;55.770;37.592;2023-05-08T12:44:50;101191.28;;;12.58;32.18
34374;BME280;20637;55.770;37.592;2023-05-08T12:47:19;101176.88;;;12.48;31.80
34374;BME280;20637;55.770;37.592;2023-05-08T12:49:46;101176.31;;;12.35;32.04
34374;BME280;20637;55.770;37.592;2023-05-08T12:52:13;101175.31;;;12.36;32.43
34374;BME280;20637;55.770;37.592;2023-05-08T12:54:44;101182.03;;;12.41;32.08
34374;BME280;20637;55.770;37.592;2023-05-08T12:57:11;101182.03;;;12.41;31.94
34374;BME280;20637;55.770;37.592;2023-05-08T12:59:37;101166.47;;;12.43;32.01
34374;BME280;20637;55.770;37.592;2023-05-08T13:02:02;101173.31;;;12.48;32.47
34374;BME280;20637;55.770;37.592;2023-05-08T13:04:28;101175.03;;;12.49;32.38
34374;BME280;20637;55.770;37.592;2023-05-08T13:06:54;101179.59;;;12.48;32.47
34374;BME280;20637;55.770;37.592;2023-05-08T13:09:19;101175.03;;;12.49;31.78
34374;BME280;20637;55.770;37.592;2023-05-08T13:11:45;101169.75;;;12.57;32.58
34374;BME280;20637;55.770;37.592;2023-05-08T13:14:11;101164.19;;;12.68;32.29
34374;BME280;20637;55.770;37.592;2023-05-08T13:16:45;101160.88;;;12.83;32.09
34374;BME280;20637;55.770;37.592;2023-05-08T13:19:14;101155.88;;;12.88;31.70
34374;BME280;20637;55.770;37.592;2023-05-08T13:21:43;101152.75;;;12.83;31.51
34374;BME280;20637;55.770;37.592;2023-05-08T13:24:11;101152.75;;;12.83;31.25
34374;BME280;20637;55.770;37.592;2023-05-08T13:26:37;101152.47;;;12.77;31.51